Time;durP1;ratioP1;P1;durP2;ratioP2;P2;SDS_P1;SDS_P2;PMS_P1;PMS_P2;Temp;Humidity;BMP_temperature;BMP_pressure;BME280_temperature;BME280_humidity;BME280_pressure;Samples;Min_cycle;Max_cycle;Signal;HPM_P1;HPM_P2
2021/11/01 00:01:21;;;;;;;12.43;8.13;;;14.60;99.90;;;;;;5050610;28;20203;-74
2021/11/01 00:03:48;;;;;;;15.90;12.18;;;14.60;99.90;;;;;;5050389;28;20233;-74
2021/11/01 00:06:15;;;;;;;16.75;12.38;;;14.60;99.90;;;;;;5050053;28;20260;-74
2021/11/01 00:08:45;;;;;;;18.08;13.32;;;14.60;99.90;;;;;;5050606;28;20203;-74
2021/11/01 00:11:12;;;;;;;19.13;11.43;;;14.60;99.90;;;;;;5050613;28;20217;-73
2021/11/01 00:13:39;;;;;;;13.30;7.80;;;14.60;99.90;;;;;;5050641;28;20211;-73
2021/11/01 00:16:06;;;;;;;8.98;5.97;;;14.60;99.90;;;;;;5049868;28;20219;-73
2021/11/01 00:18:32;;;;;;;9.18;6.15;;;14.60;99.90;;;;;;5049909;28;20633;-73
2021/11/01 00:20:59;;;;;;;10.77;5.13;;;14.70;99.90;;;;;;5050257;28;20207;-73
2021/11/01 00:23:26;;;;;;;8.77;4.70;;;14.60;99.90;;;;;;5050376;28;20257;-73
2021/11/01 00:25:55;;;;;;;3.88;2.40;;;14.60;99.90;;;;;;5050690;28;20230;-73
2021/11/01 00:28:22;;;;;;;3.78;2.28;;;14.50;99.90;;;;;;5050641;28;20635;-73
2021/11/01 00:30:49;;;;;;;1.77;1.08;;;14.40;99.90;;;;;;5050337;28;20203;-73
2021/11/01 00:33:16;;;;;;;3.03;1.20;;;14.40;99.90;;;;;;5049890;28;20214;-73
2021/11/01 00:35:43;;;;;;;1.65;0.82;;;14.40;99.90;;;;;;5050133;28;20229;-73
2021/11/01 00:38:10;;;;;;;5.20;1.10;;;14.40;99.90;;;;;;5049998;28;20211;-73
2021/11/01 00:40:38;;;;;;;4.97;1.20;;;14.40;99.90;;;;;;5050167;28;20682;-73
2021/11/01 00:43:06;;;;;;;2.10;0.98;;;14.50;99.90;;;;;;5050043;28;20203;-73
2021/11/01 00:45:34;;;;;;;3.25;0.93;;;14.50;99.90;;;;;;5050531;28;20242;-73
2021/11/01 00:48:01;;;;;;;4.72;1.65;;;14.50;99.90;;;;;;5049573;28;20202;-72
2021/11/01 00:50:31;;;;;;;4.45;1.00;;;14.50;99.90;;;;;;5050196;28;20297;-72
2021/11/01 00:52:58;;;;;;;2.25;0.77;;;14.50;99.90;;;;;;5049934;28;20670;-72
2021/11/01 00:55:35;;;;;;;3.67;0.80;;;14.60;99.90;;;;;;5050255;28;20677;-72
2021/11/01 00:58:02;;;;;;;0.93;0.85;;;14.60;99.90;;;;;;5049469;28;20199;-72
2021/11/01 01:00:31;;;;;;;3.33;1.00;;;14.50;99.90;;;;;;5049970;28;20217;-71
2021/11/01 01:02:58;;;;;;;2.28;0.82;;;14.60;99.90;;;;;;5049658;28;20638;-70
2021/11/01 01:05:25;;;;;;;2.58;1.25;;;14.50;99.90;;;;;;5050301;28;20231;-71
2021/11/01 01:07:53;;;;;;;5.35;1.05;;;14.50;99.90;;;;;;5050516;28;20574;-72
2021/11/01 01:10:20;;;;;;;3.83;1.13;;;14.50;99.90;;;;;;5049691;28;20298;-71
2021/11/01 01:12:47;;;;;;;2.25;1.25;;;14.50;99.90;;;;;;5050014;28;20655;-72
2021/11/01 01:15:19;;;;;;;1.73;0.80;;;14.40;99.90;;;;;;5049260;28;20662;-72
2021/11/01 01:17:48;;;;;;;2.35;0.90;;;14.40;99.90;;;;;;5049685;28;20610;-72
2021/11/01 01:20:17;;;;;;;4.10;0.80;;;14.30;99.90;;;;;;5049365;28;20264;-73
2021/11/01 01:22:45;;;;;;;1.70;0.63;;;14.20;99.90;;;;;;5050264;28;20242;-73
2021/11/01 01:25:24;;;;;;;1.38;0.55;;;14.30;99.90;;;;;;5049720;28;20230;-73
2021/11/01 01:27:53;;;;;;;6.22;0.98;;;14.20;99.90;;;;;;5036373;28;20211;-74
2021/11/01 01:30:21;;;;;;;2.22;0.90;;;14.40;99.90;;;;;;5053214;28;20211;-72
2021/11/01 01:32:49;;;;;;;3.50;1.02;;;14.30;99.90;;;;;;5039664;28;20207;-72
2021/11/01 01:35:17;;;;;;;1.40;0.75;;;14.30;99.90;;;;;;5053495;28;20211;-73
2021/11/01 01:37:44;;;;;;;1.50;0.60;;;14.30;99.90;;;;;;5053527;28;20206;-73
2021/11/01 01:40:15;;;;;;;1.30;0.60;;;14.30;99.90;;;;;;5053115;28;20211;-73
2021/11/01 01:42:42;;;;;;;2.83;0.90;;;14.30;99.90;;;;;;5053093;28;20203;-73
2021/11/01 01:45:12;;;;;;;2.58;0.80;;;14.20;99.90;;;;;;5053218;28;20235;-73
2021/11/01 01:47:41;;;;;;;5.07;0.98;;;14.30;99.90;;;;;;5053401;28;20264;-73
2021/11/01 01:50:12;;;;;;;2.30;1.10;;;14.30;99.90;;;;;;5052757;28;20211;-72
2021/11/01 01:52:39;;;;;;;1.10;0.65;;;14.20;99.90;;;;;;5052960;28;20588;-73
2021/11/01 01:55:09;;;;;;;2.90;1.65;;;14.10;99.90;;;;;;5052534;28;20305;-72
2021/11/01 01:57:36;;;;;;;1.77;0.60;;;14.10;99.90;;;;;;5053184;28;20210;-73
2021/11/01 02:00:07;;;;;;;1.83;0.63;;;14.00;99.90;;;;;;5052365;28;20690;-74
2021/11/01 02:02:34;;;;;;;4.38;0.82;;;14.00;99.90;;;;;;5052945;28;20203;-73
2021/11/01 02:05:01;;;;;;;5.30;1.00;;;14.00;99.90;;;;;;5052559;28;20288;-74
2021/11/01 02:07:35;;;;;;;3.60;0.90;;;14.00;99.90;;;;;;5052942;28;20207;-74
2021/11/01 02:10:07;;;;;;;2.10;0.73;;;13.90;99.90;;;;;;5052595;28;20206;-74
2021/11/01 02:12:40;;;;;;;4.68;0.95;;;13.90;99.90;;;;;;5052957;28;20249;-74
2021/11/01 02:15:13;;;;;;;2.10;0.68;;;13.90;99.90;;;;;;5052026;28;20218;-75
2021/11/01 02:17:41;;;;;;;2.28;0.90;;;13.80;99.90;;;;;;5052794;28;20210;-74
2021/11/01 02:20:11;;;;;;;1.80;0.95;;;13.80;99.90;;;;;;5052461;28;20213;-74
2021/11/01 02:22:50;;;;;;;2.53;0.60;;;13.80;99.90;;;;;;5053027;28;20207;-74
2021/11/01 02:25:33;;;;;;;1.15;0.45;;;13.90;99.90;;;;;;5052207;28;20242;-75
2021/11/01 02:28:01;;;;;;;1.63;0.55;;;13.70;99.90;;;;;;5052414;28;20211;-74
2021/11/01 02:30:30;;;;;;;1.70;0.43;;;13.70;99.90;;;;;;5051976;28;20211;-74
2021/11/01 02:32:58;;;;;;;2.33;0.60;;;13.60;99.90;;;;;;5052767;28;20210;-74
2021/11/01 02:35:26;;;;;;;1.70;0.50;;;13.50;99.90;;;;;;5052797;28;20670;-74
2021/11/01 02:37:53;;;;;;;2.97;0.60;;;13.70;99.90;;;;;;5052933;28;20260;-75
2021/11/01 02:40:28;;;;;;;3.50;0.70;;;13.80;99.90;;;;;;5051286;28;20207;-74
2021/11/01 02:42:56;;;;;;;2.55;0.80;;;13.90;99.90;;;;;;5052579;28;20252;-73
2021/11/01 02:45:23;;;;;;;1.95;0.70;;;13.90;99.90;;;;;;5051912;28;20753;-74
2021/11/01 02:47:50;;;;;;;4.05;1.25;;;13.70;99.90;;;;;;5051653;28;20260;-74
2021/11/01 02:50:18;;;;;;;4.38;0.90;;;13.70;99.90;;;;;;5049573;28;20240;-74
2021/11/01 02:52:45;;;;;;;3.33;0.80;;;13.60;99.90;;;;;;5052032;28;20256;-74
2021/11/01 02:55:14;;;;;;;5.30;0.70;;;13.60;99.90;;;;;;5051571;28;20682;-75
2021/11/01 02:57:43;;;;;;;1.63;1.02;;;13.60;99.90;;;;;;5051656;28;20696;-75
2021/11/01 03:00:12;;;;;;;4.45;0.75;;;13.60;99.90;;;;;;5051362;28;20301;-74
2021/11/01 03:02:39;;;;;;;1.20;0.60;;;13.50;99.90;;;;;;5051878;28;20206;-74
2021/11/01 03:05:10;;;;;;;0.75;0.60;;;13.50;99.90;;;;;;5051678;28;20230;-72
2021/11/01 03:07:39;;;;;;;1.52;0.68;;;13.50;99.90;;;;;;5051450;28;20697;-72
2021/11/01 03:10:07;;;;;;;1.25;0.77;;;13.50;99.90;;;;;;5051516;28;20215;-72
2021/11/01 03:12:34;;;;;;;1.13;0.70;;;13.50;99.90;;;;;;5051583;28;20253;-71
2021/11/01 03:15:08;;;;;;;2.17;0.75;;;13.50;99.90;;;;;;5051584;28;20203;-72
2021/11/01 03:17:38;;;;;;;2.55;0.70;;;13.50;99.90;;;;;;5051407;28;20202;-73
2021/11/01 03:20:08;;;;;;;3.28;0.60;;;13.50;99.90;;;;;;5051282;28;20203;-73
2021/11/01 03:22:39;;;;;;;1.02;0.40;;;13.60;99.90;;;;;;5051271;28;20207;-73
2021/11/01 03:25:22;;;;;;;2.45;0.70;;;13.70;99.90;;;;;;5050966;28;20622;-73
2021/11/01 03:27:52;;;;;;;3.00;0.60;;;13.60;99.90;;;;;;5050972;28;20289;-73
2021/11/01 03:30:22;;;;;;;1.33;0.60;;;13.70;99.90;;;;;;5051112;28;20206;-73
2021/11/01 03:32:50;;;;;;;2.45;0.60;;;13.80;99.90;;;;;;5051060;28;20662;-73
2021/11/01 03:35:19;;;;;;;1.70;0.70;;;13.80;99.90;;;;;;5050913;28;20270;-73
2021/11/01 03:37:49;;;;;;;1.95;0.43;;;13.70;99.90;;;;;;5051284;28;20626;-74
2021/11/01 03:40:19;;;;;;;3.50;0.98;;;13.70;99.90;;;;;;5051004;28;20276;-74
2021/11/01 03:42:46;;;;;;;5.55;0.90;;;13.60;99.90;;;;;;5051041;28;20215;-73
2021/11/01 03:45:14;;;;;;;3.58;1.73;;;13.70;99.90;;;;;;5050426;28;20579;-73
2021/11/01 03:47:44;;;;;;;1.65;0.40;;;13.70;99.90;;;;;;5051006;28;20629;-73
2021/11/01 03:50:20;;;;;;;1.08;0.60;;;13.70;99.90;;;;;;5050426;28;20620;-74
2021/11/01 03:52:49;;;;;;;2.20;0.50;;;13.70;99.90;;;;;;5051311;28;20214;-74
2021/11/01 03:55:18;;;;;;;1.83;0.57;;;13.70;99.90;;;;;;5050562;28;20210;-73
2021/11/01 03:57:45;;;;;;;1.83;0.75;;;13.70;99.90;;;;;;5050482;28;20630;-73
2021/11/01 04:00:14;;;;;;;0.88;0.57;;;13.80;99.90;;;;;;5050089;28;20260;-72
2021/11/01 04:02:45;;;;;;;1.33;0.50;;;13.70;99.90;;;;;;5051087;28;20293;-74
2021/11/01 04:05:12;;;;;;;1.40;0.73;;;13.70;99.90;;;;;;5050459;28;20211;-73
2021/11/01 04:07:39;;;;;;;6.28;0.68;;;13.80;99.90;;;;;;5050657;28;20265;-73
2021/11/01 04:10:09;;;;;;;1.48;0.88;;;13.80;99.90;;;;;;5050543;28;20222;-73
2021/11/01 04:12:36;;;;;;;2.38;1.60;;;13.60;99.90;;;;;;5050278;28;20613;-72
2021/11/01 04:15:07;;;;;;;4.78;0.60;;;13.50;99.90;;;;;;5050173;28;20629;-73
2021/11/01 04:17:40;;;;;;;5.85;0.75;;;13.50;99.90;;;;;;5050539;28;20195;-72
2021/11/01 04:20:28;;;;;;;1.88;0.80;;;13.50;99.90;;;;;;5050034;28;20207;-72
2021/11/01 04:23:00;;;;;;;4.38;0.70;;;13.50;99.90;;;;;;5037560;28;20289;-72
2021/11/01 04:25:28;;;;;;;2.42;0.43;;;13.40;99.90;;;;;;5050249;28;20670;-72
2021/11/01 04:27:57;;;;;;;2.80;0.80;;;13.60;99.90;;;;;;5050825;28;20238;-72
2021/11/01 04:30:24;;;;;;;1.20;0.70;;;13.50;99.90;;;;;;5050794;28;20202;-72
2021/11/01 04:32:54;;;;;;;2.80;1.23;;;13.50;99.90;;;;;;5050695;28;20199;-74
2021/11/01 04:35:25;;;;;;;2.78;1.10;;;13.50;99.90;;;;;;5050217;28;20690;-73
2021/11/01 04:37:58;;;;;;;4.78;1.17;;;13.50;99.90;;;;;;5050680;28;20198;-74
2021/11/01 04:40:37;;;;;;;4.03;2.25;;;13.60;99.90;;;;;;5050342;28;20625;-74
2021/11/01 04:43:25;;;;;;;3.75;0.82;;;13.60;99.90;;;;;;5049575;28;20607;-75
2021/11/01 04:54:07;;;;;;;2.78;0.68;;;13.50;99.90;;;;;;5049769;28;20264;-73
2021/11/01 04:56:35;;;;;;;3.28;0.70;;;13.50;99.90;;;;;;5050184;28;20217;-73
2021/11/01 04:59:03;;;;;;;1.75;0.73;;;13.60;99.90;;;;;;5050106;28;20276;-73
2021/11/01 05:01:34;;;;;;;3.75;0.80;;;13.50;99.90;;;;;;5050028;28;20218;-73
2021/11/01 05:04:05;;;;;;;2.50;0.88;;;13.60;99.90;;;;;;5052586;28;20210;-73
2021/11/01 05:06:35;;;;;;;3.13;0.80;;;13.50;99.90;;;;;;5054081;28;20256;-72
2021/11/01 05:09:06;;;;;;;4.38;0.70;;;13.50;99.90;;;;;;5053167;28;20207;-72
2021/11/01 05:11:37;;;;;;;5.50;1.85;;;13.50;99.90;;;;;;5054260;28;20249;-72
2021/11/01 05:14:04;;;;;;;2.15;0.90;;;13.50;99.90;;;;;;5053673;28;20272;-73
2021/11/01 05:16:40;;;;;;;3.38;0.82;;;13.50;99.90;;;;;;5054066;28;20286;-73
2021/11/01 05:19:10;;;;;;;2.72;0.73;;;13.50;99.90;;;;;;5053311;28;20217;-73
2021/11/01 05:21:44;;;;;;;2.30;0.70;;;13.40;99.90;;;;;;5053718;28;20742;-73
2021/11/01 05:24:15;;;;;;;2.38;0.60;;;13.50;99.90;;;;;;5053181;28;20315;-73
2021/11/01 05:27:05;;;;;;;5.68;0.85;;;13.60;99.90;;;;;;5053595;28;20223;-73
2021/11/01 05:29:32;;;;;;;4.45;0.80;;;13.60;99.90;;;;;;5053660;28;20202;-73
2021/11/01 05:32:06;;;;;;;7.25;1.42;;;13.50;99.90;;;;;;5053276;28;20203;-73
2021/11/01 05:34:33;;;;;;;3.88;0.85;;;13.60;99.90;;;;;;5053608;28;20290;-72
2021/11/01 05:37:01;;;;;;;3.63;1.60;;;13.70;99.90;;;;;;5053165;28;20260;-73
2021/11/01 05:39:28;;;;;;;2.63;1.08;;;13.60;99.90;;;;;;5053321;28;20207;-72
2021/11/01 05:41:55;;;;;;;1.00;0.50;;;13.50;99.90;;;;;;5053769;28;20211;-73
2021/11/01 05:44:22;;;;;;;1.67;0.88;;;13.40;99.90;;;;;;5052916;28;20206;-73
2021/11/01 05:46:50;;;;;;;2.25;1.05;;;13.60;99.90;;;;;;5053473;28;20234;-73
2021/11/01 05:49:20;;;;;;;3.95;0.95;;;13.50;99.90;;;;;;5053215;28;20312;-72
2021/11/01 05:51:47;;;;;;;4.18;1.08;;;13.40;99.90;;;;;;5053207;28;20211;-72
2021/11/01 05:54:17;;;;;;;4.47;0.80;;;13.50;99.90;;;;;;5052574;28;20207;-72
2021/11/01 05:56:50;;;;;;;2.42;1.17;;;13.50;99.90;;;;;;5052691;28;20689;-72
2021/11/01 05:59:39;;;;;;;3.70;0.88;;;13.50;99.90;;;;;;5052360;28;20219;-72
2021/11/01 06:05:04;;;;;;;6.78;1.25;;;13.50;99.90;;;;;;5037730;28;20626;-72
2021/11/01 06:07:38;;;;;;;3.38;1.02;;;13.50;99.90;;;;;;5052712;28;20230;-73
2021/11/01 06:10:11;;;;;;;1.55;0.50;;;13.50;99.90;;;;;;5052739;28;20207;-72
2021/11/01 06:15:27;;;;;;;1.98;0.55;;;13.30;99.90;;;;;;5051217;28;20198;-72
2021/11/01 06:17:54;;;;;;;1.60;0.50;;;13.40;99.90;;;;;;5053233;28;20214;-73
2021/11/01 06:20:21;;;;;;;5.00;1.17;;;13.30;99.90;;;;;;5052782;28;20265;-72
2021/11/01 06:22:48;;;;;;;0.50;0.45;;;13.40;99.90;;;;;;5052652;28;20207;-72
2021/11/01 06:25:18;;;;;;;1.23;0.47;;;13.30;99.90;;;;;;5052186;28;20589;-73
2021/11/01 06:27:47;;;;;;;1.63;0.70;;;13.20;99.90;;;;;;5052457;28;20238;-72
2021/11/01 06:30:22;;;;;;;1.30;0.40;;;13.30;99.90;;;;;;5052086;28;20214;-72
2021/11/01 06:32:59;;;;;;;0.95;0.50;;;13.40;99.90;;;;;;5052469;28;20209;-72
2021/11/01 06:41:15;;;;;;;2.83;0.57;;;13.30;99.90;;;;;;5052431;28;20209;-72
2021/11/01 06:43:57;;;;;;;2.30;1.45;;;13.30;99.90;;;;;;5052503;28;20635;-73
2021/11/01 06:52:21;;;;;;;1.42;0.40;;;13.20;99.90;;;;;;5039841;28;20301;-72
2021/11/01 06:55:08;;;;;;;1.45;0.60;;;13.20;99.90;;;;;;5051809;28;20222;-71
2021/11/01 06:57:44;;;;;;;0.95;0.77;;;13.20;99.90;;;;;;5052116;28;20276;-71
2021/11/01 07:14:19;;;;;;;1.05;0.40;;;13.10;99.90;;;;;;5051799;28;20221;-72
2021/11/01 07:16:49;;;;;;;1.02;0.52;;;13.10;99.90;;;;;;5051891;28;20223;-72
2021/11/01 07:19:25;;;;;;;1.45;0.60;;;13.10;99.90;;;;;;5050779;28;20210;-72
2021/11/01 07:22:14;;;;;;;3.33;0.75;;;13.20;99.90;;;;;;5051725;28;20572;-72
2021/11/01 07:39:05;;;;;;;4.10;1.15;;;13.50;99.90;;;;;;5015880;28;20211;-73
2021/11/01 08:28:39;;;;;;;3.92;0.77;;;13.50;99.90;;;;;;5050048;28;20318;-72
2021/11/01 08:40:21;;;;;;;4.70;0.95;;;13.70;99.90;;;;;;5101017;27;20563;-74
2021/11/01 08:48:40;;;;;;;4.30;0.70;;;13.90;99.90;;;;;;5082356;28;20200;-74
2021/11/01 09:18:54;;;;;;;1.27;0.85;;;14.20;99.90;;;;;;5087324;28;20710;-72
2021/11/01 09:21:53;;;;;;;4.40;0.70;;;14.30;99.90;;;;;;5087396;28;20201;-72
2021/11/01 09:24:35;;;;;;;0.50;0.40;;;14.50;99.90;;;;;;5086628;28;20219;-72
2021/11/01 09:27:05;;;;;;;1.10;0.60;;;14.80;99.90;;;;;;5086729;28;20216;-73
2021/11/01 09:29:48;;;;;;;2.35;0.50;;;15.60;99.90;;;;;;5081835;28;20205;-72
2021/11/01 09:38:12;;;;;;;0.80;0.32;;;15.60;99.90;;;;;;5077065;28;20209;-72
2021/11/01 09:40:58;;;;;;;1.40;0.50;;;15.50;99.90;;;;;;5072645;28;20297;-72
2021/11/01 09:43:26;;;;;;;1.67;0.30;;;15.60;99.90;;;;;;5075482;28;20276;-71
2021/11/01 09:45:56;;;;;;;1.15;0.60;;;15.50;99.90;;;;;;5079300;28;20214;-71
2021/11/01 09:48:24;;;;;;;1.25;0.30;;;15.30;99.90;;;;;;5072370;28;20251;-71
2021/11/01 09:50:51;;;;;;;0.70;0.43;;;15.20;99.90;;;;;;5070046;28;20206;-71
2021/11/01 09:53:21;;;;;;;0.93;0.50;;;15.30;99.90;;;;;;5072790;28;20606;-72
2021/11/01 09:55:51;;;;;;;1.90;0.50;;;15.50;99.90;;;;;;5066430;28;20246;-71
2021/11/01 10:01:07;;;;;;;1.98;0.55;;;15.70;99.90;;;;;;5072732;28;20213;-71
2021/11/01 10:03:36;;;;;;;2.05;0.40;;;15.50;99.90;;;;;;5062173;28;20257;-70
2021/11/01 10:06:05;;;;;;;0.70;0.35;;;15.60;99.90;;;;;;5072297;28;20292;-70
2021/11/01 10:08:32;;;;;;;3.75;0.60;;;15.70;99.90;;;;;;5072660;28;20206;-70
2021/11/01 10:11:00;;;;;;;1.05;0.40;;;15.90;99.90;;;;;;5066706;28;20260;-70
2021/11/01 10:13:28;;;;;;;0.80;0.30;;;16.30;99.90;;;;;;5071374;28;20210;-70
2021/11/01 10:18:47;;;;;;;0.82;0.73;;;16.50;99.90;;;;;;5065995;28;20236;-70
2021/11/01 10:21:16;;;;;;;1.13;0.57;;;16.60;99.90;;;;;;5063462;28;20252;-71
2021/11/01 10:23:47;;;;;;;1.10;0.68;;;16.50;99.90;;;;;;5068189;28;20228;-71
2021/11/01 10:26:17;;;;;;;1.65;0.40;;;16.70;99.90;;;;;;5071100;28;20230;-70
2021/11/01 10:28:44;;;;;;;0.32;0.30;;;16.80;99.90;;;;;;5067714;28;20214;-69
2021/11/01 10:31:13;;;;;;;0.40;0.40;;;16.70;99.90;;;;;;5070472;28;20198;-70
2021/11/01 10:33:44;;;;;;;1.63;0.52;;;16.80;99.90;;;;;;5071643;28;20202;-70
2021/11/01 10:36:13;;;;;;;2.55;0.60;;;16.80;99.90;;;;;;5067529;28;20207;-70
2021/11/01 10:38:43;;;;;;;6.82;1.50;;;16.70;99.90;;;;;;5071173;28;20287;-70
2021/11/01 10:41:16;;;;;;;0.70;0.40;;;16.80;99.90;;;;;;5068231;28;20238;-70
2021/11/01 10:43:56;;;;;;;4.68;0.50;;;16.90;99.90;;;;;;5067025;28;20205;-70
2021/11/01 11:11:30;;;;;;;1.80;0.63;;;17.10;99.90;;;;;;5070519;28;20213;-71
2021/11/01 11:14:01;;;;;;;2.70;0.85;;;16.90;99.90;;;;;;5068820;28;20661;-70
2021/11/01 11:16:51;;;;;;;1.25;0.40;;;16.70;99.90;;;;;;5071628;28;20206;-70
2021/11/01 11:19:27;;;;;;;1.40;0.63;;;16.70;99.90;;;;;;5069520;28;21153;-70
2021/11/01 11:25:00;;;;;;;2.72;0.57;;;16.70;99.90;;;;;;5013337;28;20363;-70
2021/11/01 11:27:44;;;;;;;1.65;0.40;;;16.80;99.90;;;;;;5071133;28;20202;-70
2021/11/01 11:47:15;;;;;;;1.15;0.50;;;16.40;99.90;;;;;;5037152;28;20210;-71
2021/11/01 11:49:42;;;;;;;1.02;0.73;;;16.10;99.90;;;;;;5060996;28;20252;-70
2021/11/01 11:52:13;;;;;;;1.13;0.52;;;16.10;99.90;;;;;;5069694;28;20259;-70
2021/11/01 11:54:44;;;;;;;1.90;0.60;;;16.00;99.90;;;;;;5064717;28;20206;-70
2021/11/01 11:57:19;;;;;;;1.20;0.40;;;16.00;99.90;;;;;;5068551;28;20209;-71
2021/11/01 11:59:49;;;;;;;2.28;0.50;;;15.80;99.90;;;;;;5062884;28;20236;-70
2021/11/01 12:02:29;;;;;;;5.72;0.82;;;15.80;99.90;;;;;;5066301;28;20206;-70
2021/11/01 12:05:06;;;;;;;4.88;1.80;;;15.70;99.90;;;;;;5063222;28;20696;-71
2021/11/01 12:07:47;;;;;;;4.40;0.85;;;15.30;99.90;;;;;;5070780;28;20202;-71
2021/11/01 12:10:31;;;;;;;3.58;0.90;;;15.00;99.90;;;;;;5065941;28;20206;-70
2021/11/01 12:13:11;;;;;;;7.78;0.82;;;14.70;99.90;;;;;;5060721;28;20228;-70
2021/11/01 12:18:48;;;;;;;2.33;1.45;;;14.30;99.90;;;;;;5048326;28;20221;-71
2021/11/01 12:21:15;;;;;;;3.63;0.90;;;14.20;99.90;;;;;;5065230;28;20234;-71
2021/11/01 12:23:43;;;;;;;2.53;1.15;;;14.20;99.90;;;;;;5070237;28;20202;-71
2021/11/01 12:26:12;;;;;;;4.72;1.35;;;14.10;99.90;;;;;;5069636;28;20758;-71
2021/11/01 12:28:41;;;;;;;3.33;1.27;;;14.30;99.90;;;;;;5070426;28;20662;-71
2021/11/01 12:31:09;;;;;;;1.92;0.50;;;14.60;99.90;;;;;;5069597;28;20619;-71
2021/11/01 12:33:40;;;;;;;2.17;0.82;;;14.80;99.90;;;;;;5070355;28;20289;-70
2021/11/01 12:36:09;;;;;;;6.95;0.82;;;15.00;99.90;;;;;;5060090;28;20209;-71
2021/11/01 12:38:41;;;;;;;3.75;0.75;;;15.10;99.90;;;;;;5062924;28;20317;-71
2021/11/01 12:41:24;;;;;;;1.30;1.02;;;14.90;99.90;;;;;;5063903;28;20673;-70
2021/11/01 12:56:56;;;;;;;4.25;0.50;;;15.20;99.90;;;;;;5068539;28;20562;-70
2021/11/01 12:58:22;;;;;;;1.98;0.80;;;15.20;99.90;;;;;;5064329;28;20240;-70
2021/11/01 13:00:50;;;;;;;1.92;0.40;;;14.90;99.90;;;;;;5069877;28;20226;-70
2021/11/01 13:03:22;;;;;;;3.85;0.88;;;14.90;99.90;;;;;;5062675;28;20214;-70
2021/11/01 13:05:54;;;;;;;2.67;0.82;;;15.00;99.90;;;;;;5069475;28;20288;-70
2021/11/01 13:08:26;;;;;;;1.17;0.70;;;15.10;99.90;;;;;;5069516;28;20654;-70
2021/11/01 13:10:57;;;;;;;3.13;1.00;;;15.20;99.90;;;;;;5069999;28;20593;-70
2021/11/01 13:14:00;;;;;;;1.20;0.57;;;14.90;99.90;;;;;;5070535;28;20210;-70
2021/11/01 13:19:19;;;;;;;2.15;0.50;;;15.00;99.90;;;;;;5069203;28;20315;-70
2021/11/01 13:21:53;;;;;;;6.85;2.38;;;15.00;99.90;;;;;;5069708;28;20214;-70
2021/11/01 13:24:24;;;;;;;2.75;0.82;;;15.10;99.90;;;;;;5069218;28;20634;-70
2021/11/01 13:27:12;;;;;;;1.15;0.60;;;15.10;99.90;;;;;;5073730;28;20210;-70
2021/11/01 13:38:02;;;;;;;1.05;0.77;;;15.30;99.90;;;;;;5068916;28;20221;-70
2021/11/01 13:40:36;;;;;;;2.25;0.93;;;15.40;99.90;;;;;;5073572;28;20222;-70
2021/11/01 13:43:03;;;;;;;2.50;0.80;;;15.30;99.90;;;;;;5072618;28;20582;-70
2021/11/01 13:45:30;;;;;;;8.90;1.02;;;15.10;99.90;;;;;;5073437;28;20202;-71
2021/11/01 13:48:03;;;;;;;2.25;0.45;;;15.00;99.90;;;;;;5072916;28;20665;-70
2021/11/01 13:50:38;;;;;;;1.92;0.52;;;15.00;99.90;;;;;;5067592;28;20237;-71
2021/11/01 13:53:09;;;;;;;1.95;0.60;;;14.90;99.90;;;;;;5070574;28;20210;-70
2021/11/01 13:55:48;;;;;;;1.45;0.50;;;14.80;99.90;;;;;;5062562;28;20241;-70
2021/11/01 13:58:32;;;;;;;2.08;0.75;;;15.10;99.90;;;;;;5072409;28;20745;-71
2021/11/01 14:01:24;;;;;;;2.40;1.00;;;15.20;99.90;;;;;;5072850;28;20234;-70
2021/11/01 14:12:27;;;;;;;1.90;0.60;;;15.00;99.90;;;;;;5039108;28;20222;-70
2021/11/01 14:14:59;;;;;;;3.13;0.60;;;14.80;99.90;;;;;;5071573;28;20225;-71
2021/11/01 14:20:39;;;;;;;3.63;0.80;;;15.10;99.90;;;;;;5065375;28;20228;-70
2021/11/01 15:13:01;;;;;;;2.17;0.60;;;13.10;99.90;;;;;;5066572;28;20599;-69
2021/11/01 15:15:36;;;;;;;1.15;0.65;;;13.20;99.90;;;;;;5071671;28;20210;-70
2021/11/01 15:21:02;;;;;;;2.47;0.95;;;13.20;99.90;;;;;;5059621;28;20233;-69
2021/11/01 15:23:41;;;;;;;6.03;1.75;;;13.20;99.90;;;;;;5071339;28;20209;-69
2021/11/01 15:29:22;;;;;;;1.30;0.60;;;13.20;99.90;;;;;;4996946;28;20282;-69
2021/11/01 15:37:51;;;;;;;4.82;1.25;;;13.60;99.90;;;;;;5068998;28;20191;-69
2021/11/01 15:40:36;;;;;;;3.15;1.05;;;13.60;99.90;;;;;;5070007;28;20320;-70
2021/11/01 16:18:48;;;;;;;3.60;1.40;;;12.80;99.90;;;;;;5068187;28;20206;-71
2021/11/01 16:21:17;;;;;;;2.80;1.00;;;12.90;99.90;;;;;;5069160;28;20237;-71
2021/11/01 16:23:45;;;;;;;2.60;1.33;;;13.00;99.90;;;;;;5070166;28;20206;-71
2021/11/01 16:26:18;;;;;;;4.97;1.63;;;13.10;99.90;;;;;;5069594;28;20724;-72
2021/11/01 16:28:46;;;;;;;5.45;1.02;;;13.10;99.90;;;;;;5065729;28;20661;-71
2021/11/01 16:31:27;;;;;;;2.00;0.90;;;13.10;99.90;;;;;;5067996;28;20255;-71
2021/11/01 16:33:58;;;;;;;6.05;0.73;;;13.10;99.90;;;;;;5067523;28;20209;-72
2021/11/01 16:36:44;;;;;;;5.68;1.63;;;13.10;99.90;;;;;;5070268;28;20209;-71
2021/11/01 16:39:12;;;;;;;4.43;1.75;;;13.20;99.90;;;;;;5068584;28;20305;-71
2021/11/01 16:41:48;;;;;;;4.45;0.90;;;13.20;99.90;;;;;;5063817;28;20662;-72
2021/11/01 16:44:18;;;;;;;3.22;1.17;;;13.20;99.90;;;;;;5069217;28;20275;-71
2021/11/01 16:46:49;;;;;;;5.63;1.20;;;13.20;99.90;;;;;;5069438;28;20210;-72
2021/11/01 16:49:17;;;;;;;4.68;0.93;;;13.20;99.90;;;;;;5069931;28;20222;-72
2021/11/01 16:51:45;;;;;;;8.35;1.65;;;13.20;99.90;;;;;;5070084;28;20209;-72
2021/11/01 16:54:14;;;;;;;5.68;1.08;;;13.10;99.90;;;;;;5070048;28;20210;-72
2021/11/01 16:56:52;;;;;;;3.08;1.35;;;13.10;99.90;;;;;;5069703;28;20225;-72
2021/11/01 16:59:32;;;;;;;2.53;0.93;;;13.10;99.90;;;;;;5069254;28;20684;-73
2021/11/01 17:02:16;;;;;;;3.63;1.20;;;13.10;99.90;;;;;;5074074;28;20212;-72
2021/11/01 17:04:47;;;;;;;2.35;1.10;;;13.10;99.90;;;;;;5074499;28;20691;-72
2021/11/01 17:07:28;;;;;;;6.47;1.00;;;13.00;99.90;;;;;;5073713;28;20198;-72
2021/11/01 17:24:03;;;;;;;4.13;1.15;;;12.70;99.90;;;;;;5074088;28;20221;-73
2021/11/01 17:26:42;;;;;;;2.50;1.45;;;12.70;99.90;;;;;;5061852;28;20198;-72
2021/11/01 17:29:37;;;;;;;3.33;1.40;;;12.70;99.90;;;;;;5072869;28;20676;-72
2021/11/01 17:35:11;;;;;;;3.78;1.67;;;12.60;99.90;;;;;;5068891;28;20300;-72
2021/11/01 17:37:51;;;;;;;4.70;1.63;;;12.40;99.90;;;;;;5064465;28;20214;-72
2021/11/01 18:38:51;;;;;;;12.35;4.40;;;12.00;99.90;;;;;;5069119;28;20289;-72
2021/11/01 18:41:21;;;;;;;5.78;2.88;;;12.00;99.90;;;;;;5069414;28;20233;-72
2021/11/01 18:52:18;;;;;;;5.57;2.90;;;12.00;99.90;;;;;;5061343;28;20189;-72
2021/11/01 18:54:52;;;;;;;6.90;3.22;;;12.00;99.90;;;;;;5069632;28;20212;-72
2021/11/01 18:57:21;;;;;;;7.15;2.97;;;11.80;99.90;;;;;;5070722;28;20669;-72
2021/11/01 18:59:52;;;;;;;3.67;2.67;;;11.70;99.90;;;;;;5069910;28;20267;-72
2021/11/01 19:05:19;;;;;;;7.53;2.95;;;11.60;99.90;;;;;;5072776;28;20685;-71
2021/11/01 19:07:54;;;;;;;8.25;3.13;;;11.50;99.90;;;;;;5078072;28;20657;-73
2021/11/01 20:06:41;;;;;;;10.00;2.73;;;11.10;99.90;;;;;;5055146;28;20208;-73
2021/11/01 21:24:36;;;;;;;6.87;1.90;;;10.70;99.90;;;;;;5069962;28;20256;-72
2021/11/01 21:27:05;;;;;;;7.73;3.13;;;10.60;99.90;;;;;;5069943;28;20297;-73
2021/11/01 21:29:34;;;;;;;4.77;1.87;;;10.70;99.90;;;;;;5069674;28;20203;-70
2021/11/01 21:32:01;;;;;;;6.77;2.33;;;10.70;99.90;;;;;;5069838;28;20276;-70
2021/11/01 21:34:31;;;;;;;5.50;2.00;;;10.60;99.90;;;;;;5069744;28;20198;-71
2021/11/01 21:36:59;;;;;;;4.70;1.83;;;10.60;99.90;;;;;;5069871;28;20665;-69
2021/11/01 21:39:26;;;;;;;9.90;2.57;;;10.60;99.90;;;;;;5070180;28;20244;-70
2021/11/01 21:41:54;;;;;;;5.20;2.07;;;10.60;99.90;;;;;;5070367;28;20420;-70
2021/11/01 21:44:22;;;;;;;9.50;2.60;;;10.60;99.90;;;;;;5069324;28;20210;-69
2021/11/01 21:46:49;;;;;;;7.23;1.90;;;10.50;99.90;;;;;;5071657;28;20649;-72
2021/11/01 21:49:17;;;;;;;8.03;3.13;;;10.60;99.90;;;;;;5072739;28;20284;-73
2021/11/01 21:51:45;;;;;;;7.40;2.90;;;10.50;99.90;;;;;;5073317;28;20213;-69
2021/11/01 21:54:26;;;;;;;4.73;2.23;;;10.50;99.90;;;;;;5073238;28;20764;-69
2021/11/01 21:56:58;;;;;;;5.33;2.20;;;10.60;99.90;;;;;;5072113;28;20237;-70
2021/11/01 22:18:56;;;;;;;4.23;1.87;;;10.70;99.90;;;;;;5067101;28;20204;-69
2021/11/01 22:21:29;;;;;;;3.20;1.63;;;10.70;99.90;;;;;;5065296;28;20217;-70
2021/11/01 22:24:02;;;;;;;4.63;1.60;;;10.90;99.90;;;;;;5072772;28;20206;-70
2021/11/01 22:26:44;;;;;;;2.10;1.70;;;11.00;99.90;;;;;;5072613;28;20198;-70
2021/11/01 22:32:28;;;;;;;5.50;1.50;;;11.00;99.90;;;;;;5047908;28;20226;-70
2021/11/01 22:40:29;;;;;;;2.53;1.53;;;11.10;99.90;;;;;;5071291;28;20697;-70
2021/11/01 22:43:04;;;;;;;3.07;2.20;;;11.20;99.90;;;;;;5072128;28;20289;-69
2021/11/01 22:45:35;;;;;;;5.67;1.80;;;11.20;99.90;;;;;;5072500;28;20201;-70
2021/11/01 22:56:23;;;;;;;4.90;1.80;;;11.20;99.90;;;;;;5071524;28;20213;-70
2021/11/01 22:58:50;;;;;;;3.87;1.70;;;11.20;99.90;;;;;;5071785;28;20680;-70